sensor_id;sensor_type;location;lat;lon;timestamp;pressure;altitude;pressure_sealevel;temperature;humidity
55066;BME280;40964;42.114;24.220;2023-12-20T00:00:16;98168.00;;;2.42;93.17
55066;BME280;40964;42.114;24.220;2023-12-20T00:02:42;98168.97;;;2.41;93.37
55066;BME280;40964;42.114;24.220;2023-12-20T00:05:14;98173.06;;;2.44;93.70
55066;BME280;40964;42.114;24.220;2023-12-20T00:07:40;98179.34;;;2.41;93.36
55066;BME280;40964;42.114;24.220;2023-12-20T00:10:05;98164.47;;;2.43;93.04
55066;BME280;40964;42.114;24.220;2023-12-20T00:12:32;98167.59;;;2.55;92.39
55066;BME280;40964;42.114;24.220;2023-12-20T00:14:57;98169.25;;;2.64;91.69
55066;BME280;40964;42.114;24.220;2023-12-20T00:17:23;98168.28;;;2.65;92.27
55066;BME280;40964;42.114;24.220;2023-12-20T00:19:48;98165.50;;;2.67;91.17
55066;BME280;40964;42.114;24.220;2023-12-20T00:22:14;98158.69;;;2.66;91.25
55066;BME280;40964;42.114;24.220;2023-12-20T00:24:39;98167.28;;;2.66;91.29
55066;BME280;40964;42.114;24.220;2023-12-20T00:27:05;98170.50;;;2.60;91.36
55066;BME280;40964;42.114;24.220;2023-12-20T00:29:30;98166.66;;;2.64;90.43
55066;BME280;40964;42.114;24.220;2023-12-20T00:31:55;98166.00;;;2.62;91.07
55066;BME280;40964;42.114;24.220;2023-12-20T00:34:21;98160.47;;;2.65;90.92
55066;BME280;40964;42.114;24.220;2023-12-20T00:36:46;98164.06;;;2.64;91.83
55066;BME280;40964;42.114;24.220;2023-12-20T00:39:12;98155.44;;;2.64;90.98
55066;BME280;40964;42.114;24.220;2023-12-20T00:41:38;98153.00;;;2.62;91.51
55066;BME280;40964;42.114;24.220;2023-12-20T00:44:03;98158.56;;;2.75;91.52
55066;BME280;40964;42.114;24.220;2023-12-20T00:46:29;98154.81;;;2.78;91.02
55066;BME280;40964;42.114;24.220;2023-12-20T00:48:54;98146.22;;;2.77;91.23
55066;BME280;40964;42.114;24.220;2023-12-20T00:51:20;98154.81;;;2.78;90.97
55066;BME280;40964;42.114;24.220;2023-12-20T00:53:45;98147.84;;;2.78;90.80
55066;BME280;40964;42.114;24.220;2023-12-20T00:56:14;98143.78;;;2.76;90.88
55066;BME280;40964;42.114;24.220;2023-12-20T00:58:40;98147.03;;;2.78;90.45
55066;BME280;40964;42.114;24.220;2023-12-20T01:01:05;98136.66;;;2.78;90.01
55066;BME280;40964;42.114;24.220;2023-12-20T01:03:30;98141.34;;;2.74;90.21
55066;BME280;40964;42.114;24.220;2023-12-20T01:05:56;98134.69;;;2.64;90.30
55066;BME280;40964;42.114;24.220;2023-12-20T01:08:21;98136.09;;;2.58;90.31
55066;BME280;40964;42.114;24.220;2023-12-20T01:10:47;98134.47;;;2.57;91.13
55066;BME280;40964;42.114;24.220;2023-12-20T01:13:12;98125.88;;;2.56;90.87
55066;BME280;40964;42.114;24.220;2023-12-20T01:15:38;98124.09;;;2.57;91.33
55066;BME280;40964;42.114;24.220;2023-12-20T01:18:03;98127.84;;;2.54;91.45
55066;BME280;40964;42.114;24.220;2023-12-20T01:20:29;98113.88;;;2.55;91.55
55066;BME280;40964;42.114;24.220;2023-12-20T01:22:54;98122.81;;;2.53;91.20
55066;BME280;40964;42.114;24.220;2023-12-20T01:25:20;98103.00;;;2.52;91.94
55066;BME280;40964;42.114;24.220;2023-12-20T01:27:45;98108.03;;;2.53;91.60
55066;BME280;40964;42.114;24.220;2023-12-20T01:30:11;98095.72;;;2.55;92.09
55066;BME280;40964;42.114;24.220;2023-12-20T01:32:36;98090.97;;;2.43;91.27
55066;BME280;40964;42.114;24.220;2023-12-20T01:35:02;98090.47;;;2.39;92.00
55066;BME280;40964;42.114;24.220;2023-12-20T01:37:28;98087.22;;;2.37;92.42
55066;BME280;40964;42.114;24.220;2023-12-20T01:39:54;98074.25;;;2.37;92.19
55066;BME280;40964;42.114;24.220;2023-12-20T01:42:19;98076.66;;;2.39;92.70
55066;BME280;40964;42.114;24.220;2023-12-20T01:44:45;98082.69;;;2.39;92.28
55066;BME280;40964;42.114;24.220;2023-12-20T01:47:10;98066.94;;;2.41;92.43
55066;BME280;40964;42.114;24.220;2023-12-20T01:49:36;98027.28;;;2.14;92.23
55066;BME280;40964;42.114;24.220;2023-12-20T01:52:02;98061.09;;;2.39;92.43
55066;BME280;40964;42.114;24.220;2023-12-20T01:54:28;98042.88;;;2.22;91.79
55066;BME280;40964;42.114;24.220;2023-12-20T01:56:54;98037.13;;;2.03;92.85
55066;BME280;40964;42.114;24.220;2023-12-20T01:59:20;98043.47;;;2.00;92.43
55066;BME280;40964;42.114;24.220;2023-12-20T02:01:46;98042.03;;;2.14;93.21
55066;BME280;40964;42.114;24.220;2023-12-20T02:04:11;98036.69;;;2.07;93.46
55066;BME280;40964;42.114;24.220;2023-12-20T02:06:37;98032.75;;;2.03;92.90
55066;BME280;40964;42.114;24.220;2023-12-20T02:09:05;98035.72;;;2.08;92.86
55066;BME280;40964;42.114;24.220;2023-12-20T02:11:30;98044.91;;;2.03;92.75
55066;BME280;40964;42.114;24.220;2023-12-20T02:13:56;98020.09;;;1.92;92.90
55066;BME280;40964;42.114;24.220;2023-12-20T02:16:23;98040.72;;;2.02;93.16
55066;BME280;40964;42.114;24.220;2023-12-20T02:18:50;98032.72;;;1.95;92.76
55066;BME280;40964;42.114;24.220;2023-12-20T02:21:16;98026.25;;;1.91;93.04
55066;BME280;40964;42.114;24.220;2023-12-20T02:23:41;98032.22;;;1.91;92.70
55066;BME280;40964;42.114;24.220;2023-12-20T02:26:07;98028.31;;;1.87;93.05
55066;BME280;40964;42.114;24.220;2023-12-20T02:28:33;98015.50;;;1.86;93.06
55066;BME280;40964;42.114;24.220;2023-12-20T02:30:59;98006.44;;;1.82;92.60
55066;BME280;40964;42.114;24.220;2023-12-20T02:33:25;98015.31;;;1.79;93.34
55066;BME280;40964;42.114;24.220;2023-12-20T02:35:50;98014.50;;;1.79;94.18
55066;BME280;40964;42.114;24.220;2023-12-20T02:38:17;98010.59;;;1.75;94.99
55066;BME280;40964;42.114;24.220;2023-12-20T02:40:43;98009.28;;;1.70;95.67
55066;BME280;40964;42.114;24.220;2023-12-20T02:43:08;98004.41;;;1.67;95.31
55066;BME280;40964;42.114;24.220;2023-12-20T02:45:34;98000.56;;;1.72;95.04
55066;BME280;40964;42.114;24.220;2023-12-20T02:47:59;98007.47;;;1.63;95.23
55066;BME280;40964;42.114;24.220;2023-12-20T02:50:25;97998.53;;;1.57;95.83
55066;BME280;40964;42.114;24.220;2023-12-20T02:52:50;97991.34;;;1.51;96.11
55066;BME280;40964;42.114;24.220;2023-12-20T02:55:15;97996.06;;;1.48;96.67
55066;BME280;40964;42.114;24.220;2023-12-20T02:57:41;97989.69;;;1.42;96.72
55066;BME280;40964;42.114;24.220;2023-12-20T03:00:08;97988.75;;;1.17;97.43
55066;BME280;40964;42.114;24.220;2023-12-20T03:02:35;97983.56;;;1.17;97.84
55066;BME280;40964;42.114;24.220;2023-12-20T03:05:01;97995.13;;;1.05;98.24
55066;BME280;40964;42.114;24.220;2023-12-20T03:07:26;97985.19;;;0.92;99.30
55066;BME280;40964;42.114;24.220;2023-12-20T03:09:52;97983.69;;;0.90;99.68
55066;BME280;40964;42.114;24.220;2023-12-20T03:12:17;97990.69;;;0.97;99.70
55066;BME280;40964;42.114;24.220;2023-12-20T03:14:43;97984.63;;;1.06;100.00
55066;BME280;40964;42.114;24.220;2023-12-20T03:17:09;97990.81;;;1.13;100.00
55066;BME280;40964;42.114;24.220;2023-12-20T03:19:34;97984.50;;;1.16;100.00
55066;BME280;40964;42.114;24.220;2023-12-20T03:22:00;97987.41;;;1.13;99.93
55066;BME280;40964;42.114;24.220;2023-12-20T03:24:26;97987.91;;;1.17;100.00
55066;BME280;40964;42.114;24.220;2023-12-20T03:26:51;97980.81;;;1.19;100.00
55066;BME280;40964;42.114;24.220;2023-12-20T03:29:17;97982.25;;;1.13;99.67
55066;BME280;40964;42.114;24.220;2023-12-20T03:31:42;97976.91;;;1.14;99.54
55066;BME280;40964;42.114;24.220;2023-12-20T03:34:08;97983.84;;;1.14;99.37
55066;BME280;40964;42.114;24.220;2023-12-20T03:36:33;97975.44;;;1.12;99.58
55066;BME280;40964;42.114;24.220;2023-12-20T03:38:58;97980.13;;;1.08;99.33
55066;BME280;40964;42.114;24.220;2023-12-20T03:41:24;97983.00;;;1.05;99.65
55066;BME280;40964;42.114;24.220;2023-12-20T03:43:49;97985.53;;;0.97;100.00
55066;BME280;40964;42.114;24.220;2023-12-20T03:46:15;97982.94;;;0.97;100.00
55066;BME280;40964;42.114;24.220;2023-12-20T03:48:40;97981.84;;;1.00;100.00
55066;BME280;40964;42.114;24.220;2023-12-20T03:51:06;97969.00;;;0.98;100.00
55066;BME280;40964;42.114;24.220;2023-12-20T03:53:31;97965.78;;;0.96;100.00
55066;BME280;40964;42.114;24.220;2023-12-20T03:55:57;97969.97;;;0.97;100.00
55066;BME280;40964;42.114;24.220;2023-12-20T03:58:22;97974.88;;;1.00;100.00
55066;BME280;40964;42.114;24.220;2023-12-20T04:00:47;97978.44;;;0.99;100.00
55066;BME280;40964;42.114;24.220;2023-12-20T04:03:13;97968.22;;;0.98;100.00
55066;BME280;40964;42.114;24.220;2023-12-20T04:05:40;97974.16;;;0.90;100.00
55066;BME280;40964;42.114;24.220;2023-12-20T04:08:06;97974.09;;;0.82;100.00
55066;BME280;40964;42.114;24.220;2023-12-20T04:10:32;97981.19;;;0.80;100.00
55066;BME280;40964;42.114;24.220;2023-12-20T04:12:57;97977.50;;;0.82;100.00
55066;BME280;40964;42.114;24.220;2023-12-20T04:15:23;97978.41;;;0.73;100.00
55066;BME280;40964;42.114;24.220;2023-12-20T04:17:48;97968.84;;;0.74;100.00
55066;BME280;40964;42.114;24.220;2023-12-20T04:20:14;97970.75;;;0.72;100.00
55066;BME280;40964;42.114;24.220;2023-12-20T04:22:39;97968.84;;;0.74;100.00
55066;BME280;40964;42.114;24.220;2023-12-20T04:25:05;97950.94;;;0.63;100.00
55066;BME280;40964;42.114;24.220;2023-12-20T04:27:30;97966.34;;;0.64;100.00
55066;BME280;40964;42.114;24.220;2023-12-20T04:29:56;97964.28;;;0.68;100.00
55066;BME280;40964;42.114;24.220;2023-12-20T04:32:21;97958.13;;;0.69;100.00
55066;BME280;40964;42.114;24.220;2023-12-20T04:34:46;97945.19;;;0.69;100.00
55066;BME280;40964;42.114;24.220;2023-12-20T04:37:12;97948.75;;;0.68;100.00
55066;BME280;40964;42.114;24.220;2023-12-20T04:39:37;97953.53;;;0.63;100.00
55066;BME280;40964;42.114;24.220;2023-12-20T04:42:03;97946.25;;;0.58;100.00
55066;BME280;40964;42.114;24.220;2023-12-20T04:44:29;97944.63;;;0.57;100.00
55066;BME280;40964;42.114;24.220;2023-12-20T04:46:54;97939.75;;;0.54;100.00
55066;BME280;40964;42.114;24.220;2023-12-20T04:49:21;97942.53;;;0.43;100.00
55066;BME280;40964;42.114;24.220;2023-12-20T04:51:47;97945.38;;;0.49;100.00
55066;BME280;40964;42.114;24.220;2023-12-20T04:54:12;97927.84;;;0.43;100.00
55066;BME280;40964;42.114;24.220;2023-12-20T04:56:38;97927.63;;;0.54;100.00
55066;BME280;40964;42.114;24.220;2023-12-20T04:59:04;97925.69;;;0.56;100.00
55066;BME280;40964;42.114;24.220;2023-12-20T05:01:29;97917.63;;;0.60;100.00
55066;BME280;40964;42.114;24.220;2023-12-20T05:03:55;97916.81;;;0.59;100.00
55066;BME280;40964;42.114;24.220;2023-12-20T05:06:20;97910.72;;;0.68;100.00
55066;BME280;40964;42.114;24.220;2023-12-20T05:08:45;97910.28;;;0.73;100.00
55066;BME280;40964;42.114;24.220;2023-12-20T05:11:11;97905.47;;;0.78;100.00
55066;BME280;40964;42.114;24.220;2023-12-20T05:13:39;97904.38;;;0.89;100.00
55066;BME280;40964;42.114;24.220;2023-12-20T05:16:05;97899.22;;;0.89;100.00
55066;BME280;40964;42.114;24.220;2023-12-20T05:18:30;97898.28;;;0.98;100.00
55066;BME280;40964;42.114;24.220;2023-12-20T05:20:56;97898.13;;;0.91;100.00
55066;BME280;40964;42.114;24.220;2023-12-20T05:23:21;97882.91;;;0.96;100.00
55066;BME280;40964;42.114;24.220;2023-12-20T05:25:46;97887.50;;;1.02;100.00
55066;BME280;40964;42.114;24.220;2023-12-20T05:28:12;97883.47;;;1.08;100.00
55066;BME280;40964;42.114;24.220;2023-12-20T05:30:37;97896.03;;;0.95;100.00
55066;BME280;40964;42.114;24.220;2023-12-20T05:33:03;97885.72;;;1.03;100.00
55066;BME280;40964;42.114;24.220;2023-12-20T05:35:28;97885.28;;;1.16;100.00
55066;BME280;40964;42.114;24.220;2023-12-20T05:40:34;97880.31;;;1.22;100.00
55066;BME280;40964;42.114;24.220;2023-12-20T05:42:59;97882.34;;;1.10;100.00
55066;BME280;40964;42.114;24.220;2023-12-20T05:45:25;97884.09;;;1.02;100.00
55066;BME280;40964;42.114;24.220;2023-12-20T05:47:50;97884.75;;;1.04;100.00
55066;BME280;40964;42.114;24.220;2023-12-20T05:50:16;97879.34;;;0.97;100.00
55066;BME280;40964;42.114;24.220;2023-12-20T05:52:41;97872.59;;;1.04;100.00
55066;BME280;40964;42.114;24.220;2023-12-20T05:55:07;97872.28;;;1.07;100.00
55066;BME280;40964;42.114;24.220;2023-12-20T05:57:32;97868.22;;;1.05;100.00
55066;BME280;40964;42.114;24.220;2023-12-20T06:00:00;97873.09;;;1.00;100.00
55066;BME280;40964;42.114;24.220;2023-12-20T06:02:26;97878.38;;;0.98;100.00
55066;BME280;40964;42.114;24.220;2023-12-20T06:04:51;97870.34;;;1.01;100.00
55066;BME280;40964;42.114;24.220;2023-12-20T06:07:17;97866.41;;;0.97;100.00
55066;BME280;40964;42.114;24.220;2023-12-20T06:09:42;97867.75;;;1.01;100.00
55066;BME280;40964;42.114;24.220;2023-12-20T06:12:08;97865.81;;;1.03;100.00
55066;BME280;40964;42.114;24.220;2023-12-20T06:14:34;97868.75;;;1.08;100.00
55066;BME280;40964;42.114;24.220;2023-12-20T06:17:00;97861.81;;;1.09;100.00
55066;BME280;40964;42.114;24.220;2023-12-20T06:19:26;97863.88;;;1.05;100.00
55066;BME280;40964;42.114;24.220;2023-12-20T06:21:52;97868.06;;;1.06;100.00
55066;BME280;40964;42.114;24.220;2023-12-20T06:24:17;97865.00;;;1.03;100.00
55066;BME280;40964;42.114;24.220;2023-12-20T06:26:42;97858.03;;;1.03;100.00
55066;BME280;40964;42.114;24.220;2023-12-20T06:29:08;97863.88;;;1.05;100.00
55066;BME280;40964;42.114;24.220;2023-12-20T06:31:34;97857.91;;;1.13;100.00
55066;BME280;40964;42.114;24.220;2023-12-20T06:33:59;97860.50;;;1.13;100.00
55066;BME280;40964;42.114;24.220;2023-12-20T06:36:27;97866.19;;;1.17;100.00
55066;BME280;40964;42.114;24.220;2023-12-20T06:38:53;97858.13;;;1.20;100.00
55066;BME280;40964;42.114;24.220;2023-12-20T06:41:18;97862.50;;;1.19;100.00
55066;BME280;40964;42.114;24.220;2023-12-20T06:43:44;97849.22;;;1.22;100.00
55066;BME280;40964;42.114;24.220;2023-12-20T06:46:09;97849.41;;;1.29;100.00
55066;BME280;40964;42.114;24.220;2023-12-20T06:48:35;97859.16;;;1.35;100.00
55066;BME280;40964;42.114;24.220;2023-12-20T06:51:01;97855.63;;;1.44;100.00
55066;BME280;40964;42.114;24.220;2023-12-20T06:53:27;97848.19;;;1.57;100.00
55066;BME280;40964;42.114;24.220;2023-12-20T06:55:53;97835.91;;;1.67;100.00
55066;BME280;40964;42.114;24.220;2023-12-20T06:58:18;97846.66;;;1.89;100.00
55066;BME280;40964;42.114;24.220;2023-12-20T07:00:44;97835.31;;;1.98;100.00
55066;BME280;40964;42.114;24.220;2023-12-20T07:03:09;97842.78;;;2.17;100.00
55066;BME280;40964;42.114;24.220;2023-12-20T07:05:35;97848.44;;;2.29;100.00
55066;BME280;40964;42.114;24.220;2023-12-20T07:08:00;97844.88;;;2.38;99.71
55066;BME280;40964;42.114;24.220;2023-12-20T07:10:26;97844.88;;;2.46;98.36
55066;BME280;40964;42.114;24.220;2023-12-20T07:12:51;97841.94;;;2.58;97.31
55066;BME280;40964;42.114;24.220;2023-12-20T07:15:17;97837.69;;;2.73;95.04
55066;BME280;40964;42.114;24.220;2023-12-20T07:17:43;97814.78;;;2.76;96.07
55066;BME280;40964;42.114;24.220;2023-12-20T07:20:09;97823.34;;;2.93;96.56
55066;BME280;40964;42.114;24.220;2023-12-20T07:22:36;97821.88;;;3.07;95.92
55066;BME280;40964;42.114;24.220;2023-12-20T07:25:02;97803.69;;;3.07;95.69
55066;BME280;40964;42.114;24.220;2023-12-20T07:27:29;97816.25;;;3.26;94.94
55066;BME280;40964;42.114;24.220;2023-12-20T07:29:54;97826.44;;;3.36;94.35
55066;BME280;40964;42.114;24.220;2023-12-20T07:32:19;97823.22;;;3.34;94.02
55066;BME280;40964;42.114;24.220;2023-12-20T07:34:45;97820.09;;;3.38;93.72
55066;BME280;40964;42.114;24.220;2023-12-20T07:37:10;97814.56;;;3.41;93.97
55066;BME280;40964;42.114;24.220;2023-12-20T07:39:40;97828.03;;;3.45;94.76
55066;BME280;40964;42.114;24.220;2023-12-20T07:42:07;97818.47;;;3.37;93.86
55066;BME280;40964;42.114;24.220;2023-12-20T07:44:32;97818.13;;;3.40;94.70
55066;BME280;40964;42.114;24.220;2023-12-20T07:46:57;97821.38;;;3.42;94.45
55066;BME280;40964;42.114;24.220;2023-12-20T07:49:23;97797.69;;;3.37;94.66
55066;BME280;40964;42.114;24.220;2023-12-20T07:51:49;97813.81;;;3.56;93.68
55066;BME280;40964;42.114;24.220;2023-12-20T07:54:15;97815.75;;;3.62;92.12
55066;BME280;40964;42.114;24.220;2023-12-20T07:56:41;97811.06;;;3.57;91.08
55066;BME280;40964;42.114;24.220;2023-12-20T07:59:06;97812.34;;;3.61;91.65
55066;BME280;40964;42.114;24.220;2023-12-20T08:01:32;97797.25;;;3.57;91.01
55066;BME280;40964;42.114;24.220;2023-12-20T08:03:57;97809.28;;;3.81;91.44
55066;BME280;40964;42.114;24.220;2023-12-20T08:06:22;97807.56;;;3.96;89.32
55066;BME280;40964;42.114;24.220;2023-12-20T08:08:48;97815.81;;;3.99;85.49
55066;BME280;40964;42.114;24.220;2023-12-20T08:11:14;97812.28;;;4.15;84.10
55066;BME280;40964;42.114;24.220;2023-12-20T08:13:39;97807.09;;;4.30;84.61
55066;BME280;40964;42.114;24.220;2023-12-20T08:16:05;97795.63;;;4.39;84.81
55066;BME280;40964;42.114;24.220;2023-12-20T08:18:30;97805.72;;;4.57;83.80
55066;BME280;40964;42.114;24.220;2023-12-20T08:20:56;97790.47;;;4.69;84.27
55066;BME280;40964;42.114;24.220;2023-12-20T08:23:21;97797.13;;;4.86;84.15
55066;BME280;40964;42.114;24.220;2023-12-20T08:25:47;97791.47;;;4.97;82.59
55066;BME280;40964;42.114;24.220;2023-12-20T08:28:13;97789.75;;;5.04;81.20
55066;BME280;40964;42.114;24.220;2023-12-20T08:30:39;97783.28;;;5.15;80.16
55066;BME280;40964;42.114;24.220;2023-12-20T08:33:04;97780.00;;;5.28;79.78
55066;BME280;40964;42.114;24.220;2023-12-20T08:35:30;97781.41;;;5.45;80.34
55066;BME280;40964;42.114;24.220;2023-12-20T08:37:56;97775.56;;;5.43;80.34
55066;BME280;40964;42.114;24.220;2023-12-20T08:40:21;97775.00;;;5.48;81.19
55066;BME280;40964;42.114;24.220;2023-12-20T08:42:46;97765.41;;;5.48;82.00
55066;BME280;40964;42.114;24.220;2023-12-20T08:45:12;97760.19;;;5.48;81.41
55066;BME280;40964;42.114;24.220;2023-12-20T08:47:37;97764.84;;;5.53;81.43
55066;BME280;40964;42.114;24.220;2023-12-20T08:50:03;97763.41;;;5.72;81.78
55066;BME280;40964;42.114;24.220;2023-12-20T08:52:28;97748.44;;;5.80;79.79
55066;BME280;40964;42.114;24.220;2023-12-20T08:54:54;97739.47;;;6.04;79.71
55066;BME280;40964;42.114;24.220;2023-12-20T08:57:20;97728.88;;;6.12;80.76
55066;BME280;40964;42.114;24.220;2023-12-20T08:59:47;97715.63;;;6.14;79.27
55066;BME280;40964;42.114;24.220;2023-12-20T09:02:12;97722.53;;;6.28;80.06
55066;BME280;40964;42.114;24.220;2023-12-20T09:04:38;97716.16;;;6.37;80.37
55066;BME280;40964;42.114;24.220;2023-12-20T09:07:04;97712.16;;;6.35;81.49
55066;BME280;40964;42.114;24.220;2023-12-20T09:09:29;97710.78;;;6.39;82.06
55066;BME280;40964;42.114;24.220;2023-12-20T09:11:57;97713.75;;;6.36;80.33
55066;BME280;40964;42.114;24.220;2023-12-20T09:14:23;97710.78;;;6.39;80.08
55066;BME280;40964;42.114;24.220;2023-12-20T09:16:48;97700.69;;;6.29;78.83
55066;BME280;40964;42.114;24.220;2023-12-20T09:19:19;97701.09;;;6.33;78.78
55066;BME280;40964;42.114;24.220;2023-12-20T09:21:44;97695.94;;;6.46;79.13
55066;BME280;40964;42.114;24.220;2023-12-20T09:24:09;97694.13;;;6.46;76.63
55066;BME280;40964;42.114;24.220;2023-12-20T09:26:35;97691.00;;;6.64;76.70
55066;BME280;40964;42.114;24.220;2023-12-20T09:29:00;97687.78;;;6.62;76.01
55066;BME280;40964;42.114;24.220;2023-12-20T09:31:26;97682.34;;;6.57;75.13
55066;BME280;40964;42.114;24.220;2023-12-20T09:33:52;97663.88;;;6.59;75.36
55066;BME280;40964;42.114;24.220;2023-12-20T09:36:17;97665.34;;;6.74;76.11
55066;BME280;40964;42.114;24.220;2023-12-20T09:38:43;97659.91;;;6.82;76.35
55066;BME280;40964;42.114;24.220;2023-12-20T09:41:08;97663.38;;;6.83;76.88
55066;BME280;40964;42.114;24.220;2023-12-20T09:43:37;97658.56;;;6.93;77.06
55066;BME280;40964;42.114;24.220;2023-12-20T09:46:05;97650.94;;;6.98;77.20
55066;BME280;40964;42.114;24.220;2023-12-20T09:48:32;97659.81;;;7.04;76.79
55066;BME280;40964;42.114;24.220;2023-12-20T09:50:59;97650.97;;;7.05;76.84
55066;BME280;40964;42.114;24.220;2023-12-20T09:53:24;97643.72;;;7.07;76.37
55066;BME280;40964;42.114;24.220;2023-12-20T09:55:57;97637.28;;;7.03;74.70
55066;BME280;40964;42.114;24.220;2023-12-20T09:58:23;97622.00;;;7.13;74.50
55066;BME280;40964;42.114;24.220;2023-12-20T10:00:49;97618.97;;;7.09;74.83
55066;BME280;40964;42.114;24.220;2023-12-20T10:03:15;97618.41;;;7.14;74.57
55066;BME280;40964;42.114;24.220;2023-12-20T10:05:43;97621.00;;;7.14;76.24
55066;BME280;40964;42.114;24.220;2023-12-20T10:08:09;97618.41;;;7.21;77.59
55066;BME280;40964;42.114;24.220;2023-12-20T10:10:35;97600.72;;;7.29;78.29
55066;BME280;40964;42.114;24.220;2023-12-20T10:13:07;97599.06;;;7.15;77.74
55066;BME280;40964;42.114;24.220;2023-12-20T10:15:34;97596.06;;;7.18;78.11
55066;BME280;40964;42.114;24.220;2023-12-20T10:18:01;97576.50;;;7.01;78.70
55066;BME280;40964;42.114;24.220;2023-12-20T10:20:27;97596.06;;;7.25;77.78
55066;BME280;40964;42.114;24.220;2023-12-20T10:22:55;97589.63;;;7.27;77.36
55066;BME280;40964;42.114;24.220;2023-12-20T10:25:21;97588.63;;;7.35;76.87
55066;BME280;40964;42.114;24.220;2023-12-20T10:27:46;97582.81;;;7.46;76.42
55066;BME280;40964;42.114;24.220;2023-12-20T10:30:13;97582.41;;;7.43;77.57
55066;BME280;40964;42.114;24.220;2023-12-20T10:32:39;97574.13;;;7.46;77.50
55066;BME280;40964;42.114;24.220;2023-12-20T10:35:06;97570.50;;;7.53;77.38
55066;BME280;40964;42.114;24.220;2023-12-20T10:37:35;97570.31;;;7.55;76.56
55066;BME280;40964;42.114;24.220;2023-12-20T10:40:03;97552.81;;;7.42;76.35
55066;BME280;40964;42.114;24.220;2023-12-20T10:42:29;97543.75;;;7.51;76.92
55066;BME280;40964;42.114;24.220;2023-12-20T10:44:56;97542.53;;;7.67;75.75
55066;BME280;40964;42.114;24.220;2023-12-20T10:47:22;97528.81;;;7.85;74.51
55066;BME280;40964;42.114;24.220;2023-12-20T10:49:52;97532.03;;;7.80;71.76
55066;BME280;40964;42.114;24.220;2023-12-20T10:52:17;97526.78;;;7.87;70.15
55066;BME280;40964;42.114;24.220;2023-12-20T10:54:44;97520.53;;;7.81;71.61
55066;BME280;40964;42.114;24.220;2023-12-20T10:57:11;97510.03;;;7.94;70.90
55066;BME280;40964;42.114;24.220;2023-12-20T10:59:37;97508.44;;;8.00;70.05
55066;BME280;40964;42.114;24.220;2023-12-20T11:02:06;97517.09;;;8.01;68.23
55066;BME280;40964;42.114;24.220;2023-12-20T11:07:35;97506.78;;;7.99;66.24
55066;BME280;40964;42.114;24.220;2023-12-20T11:15:17;97487.84;;;8.04;65.76
55066;BME280;40964;42.114;24.220;2023-12-20T11:17:44;97489.03;;;8.08;66.34
55066;BME280;40964;42.114;24.220;2023-12-20T11:20:11;97487.78;;;8.17;66.02
55066;BME280;40964;42.114;24.220;2023-12-20T11:22:38;97485.03;;;8.05;66.15
55066;BME280;40964;42.114;24.220;2023-12-20T11:25:10;97478.75;;;8.13;67.91
55066;BME280;40964;42.114;24.220;2023-12-20T11:27:40;97470.91;;;8.06;68.12
55066;BME280;40964;42.114;24.220;2023-12-20T11:30:06;97472.75;;;7.99;70.37
55066;BME280;40964;42.114;24.220;2023-12-20T11:32:34;97469.97;;;7.87;69.96
55066;BME280;40964;42.114;24.220;2023-12-20T11:37:35;97451.84;;;7.92;70.80
55066;BME280;40964;42.114;24.220;2023-12-20T11:40:05;97443.59;;;7.89;69.48
55066;BME280;40964;42.114;24.220;2023-12-20T11:42:33;97451.41;;;8.02;67.64
55066;BME280;40964;42.114;24.220;2023-12-20T11:45:01;97424.41;;;8.02;65.34
55066;BME280;40964;42.114;24.220;2023-12-20T11:47:29;97441.66;;;8.16;63.87
55066;BME280;40964;42.114;24.220;2023-12-20T11:49:55;97447.84;;;8.28;62.90
55066;BME280;40964;42.114;24.220;2023-12-20T11:52:21;97443.78;;;8.32;62.99
55066;BME280;40964;42.114;24.220;2023-12-20T11:54:47;97435.34;;;8.37;63.51
55066;BME280;40964;42.114;24.220;2023-12-20T11:57:13;97431.06;;;8.42;63.97
55066;BME280;40964;42.114;24.220;2023-12-20T11:59:39;97408.28;;;8.43;65.11
55066;BME280;40964;42.114;24.220;2023-12-20T12:02:04;97420.72;;;8.54;64.66
55066;BME280;40964;42.114;24.220;2023-12-20T12:04:30;97418.75;;;8.43;64.91
55066;BME280;40964;42.114;24.220;2023-12-20T12:06:55;97410.31;;;8.41;66.21
55066;BME280;40964;42.114;24.220;2023-12-20T12:09:20;97409.03;;;8.50;66.92
55066;BME280;40964;42.114;24.220;2023-12-20T12:11:46;97405.38;;;8.58;66.60
55066;BME280;40964;42.114;24.220;2023-12-20T12:14:12;97403.78;;;8.50;66.91
55066;BME280;40964;42.114;24.220;2023-12-20T12:16:37;97397.88;;;8.61;66.73
55066;BME280;40964;42.114;24.220;2023-12-20T12:19:03;97399.09;;;8.59;66.84
55066;BME280;40964;42.114;24.220;2023-12-20T12:21:29;97390.94;;;8.73;67.25
55066;BME280;40964;42.114;24.220;2023-12-20T12:24:06;97402.97;;;8.81;67.47
55066;BME280;40964;42.114;24.220;2023-12-20T12:26:31;97399.34;;;8.82;67.66
55066;BME280;40964;42.114;24.220;2023-12-20T12:28:57;97391.38;;;8.89;68.00
55066;BME280;40964;42.114;24.220;2023-12-20T12:31:23;97386.75;;;8.66;67.73
55066;BME280;40964;42.114;24.220;2023-12-20T12:33:50;97384.97;;;8.60;68.49
55066;BME280;40964;42.114;24.220;2023-12-20T12:36:16;97381.50;;;8.66;68.19
55066;BME280;40964;42.114;24.220;2023-12-20T12:38:43;97380.94;;;8.64;67.96
55066;BME280;40964;42.114;24.220;2023-12-20T12:41:13;97382.66;;;8.70;67.51
55066;BME280;40964;42.114;24.220;2023-12-20T12:43:38;97371.34;;;8.76;67.07
55066;BME280;40964;42.114;24.220;2023-12-20T12:46:03;97369.88;;;8.80;67.67
55066;BME280;40964;42.114;24.220;2023-12-20T12:48:29;97373.63;;;8.91;68.00
55066;BME280;40964;42.114;24.220;2023-12-20T12:50:55;97369.13;;;8.98;68.26
55066;BME280;40964;42.114;24.220;2023-12-20T12:53:24;97364.19;;;9.08;67.47
55066;BME280;40964;42.114;24.220;2023-12-20T12:55:50;97365.50;;;8.99;67.25
55066;BME280;40964;42.114;24.220;2023-12-20T12:58:15;97371.44;;;8.88;67.42
55066;BME280;40964;42.114;24.220;2023-12-20T13:00:41;97365.09;;;8.95;68.31
55066;BME280;40964;42.114;24.220;2023-12-20T13:03:07;97368.63;;;9.07;68.37